createdAt,value
2023-05-20T00:00:49.378Z,13.05
2023-05-20T00:03:23.287Z,10.68
2023-05-20T00:05:53.511Z,11.80
2023-05-20T00:08:23.605Z,11.55
2023-05-20T00:10:53.665Z,11.60
2023-05-20T00:13:24.473Z,11.27
2023-05-20T00:15:56.059Z,11.40
2023-05-20T00:18:28.776Z,11.65
2023-05-20T00:20:58.840Z,11.10
2023-05-20T00:23:28.883Z,11.85
2023-05-20T00:26:00.729Z,11.70
2023-05-20T00:28:31.169Z,12.15
2023-05-20T00:31:01.283Z,12.57
2023-05-20T00:33:33.977Z,12.50
2023-05-20T00:36:04.133Z,11.35
2023-05-20T00:38:34.421Z,11.50
2023-05-20T00:41:04.444Z,12.43
2023-05-20T00:43:34.549Z,11.55
2023-05-20T00:46:05.278Z,11.93
2023-05-20T00:48:44.129Z,11.77
2023-05-20T00:51:14.819Z,12.48
2023-05-20T00:53:45.183Z,13.13
2023-05-20T00:56:15.578Z,13.27
2023-05-20T00:58:45.726Z,13.40
2023-05-20T01:01:15.824Z,13.88
2023-05-20T01:03:48.999Z,13.52
2023-05-20T01:06:19.360Z,13.45
2023-05-20T01:08:49.555Z,12.88
2023-05-20T01:11:27.238Z,12.40
2023-05-20T01:13:59.773Z,12.43
2023-05-20T01:16:30.235Z,14.38
2023-05-20T01:19:04.223Z,14.35
2023-05-20T01:21:34.562Z,14.88
2023-05-20T01:24:07.485Z,14.68
2023-05-20T01:26:38.562Z,15.15
2023-05-20T01:29:08.683Z,13.93
2023-05-20T01:31:40.429Z,16.00
2023-05-20T01:34:10.704Z,16.00
2023-05-20T01:36:40.930Z,14.25
2023-05-20T01:39:13.653Z,13.75
2023-05-20T01:41:44.306Z,14.18
2023-05-20T01:44:14.562Z,14.38
2023-05-20T01:46:44.951Z,15.95
2023-05-20T01:49:15.008Z,15.63
2023-05-20T01:51:45.144Z,16.25
2023-05-20T01:54:17.984Z,16.75
2023-05-20T01:56:49.216Z,14.65
2023-05-20T01:59:19.565Z,14.73
2023-05-20T02:01:49.696Z,15.68
2023-05-20T02:04:20.190Z,15.85
2023-05-20T02:06:50.329Z,16.65
2023-05-20T02:09:24.266Z,17.20
2023-05-20T02:11:55.788Z,17.13
2023-05-20T02:14:25.832Z,16.98
2023-05-20T02:16:56.014Z,15.55
2023-05-20T02:19:26.312Z,16.33
2023-05-20T02:21:56.401Z,17.13
2023-05-20T02:24:29.074Z,17.02
2023-05-20T02:26:59.315Z,18.23
2023-05-20T02:29:30.122Z,18.05
2023-05-20T02:32:00.230Z,18.02
2023-05-20T02:34:31.796Z,19.48
2023-05-20T02:37:01.978Z,18.40
2023-05-20T02:39:35.091Z,18.80
2023-05-20T02:42:05.129Z,20.02
2023-05-20T02:44:35.244Z,21.92
2023-05-20T02:47:05.323Z,22.38
2023-05-20T02:49:35.396Z,22.85
2023-05-20T02:52:06.188Z,23.05
2023-05-20T02:54:38.929Z,22.60
2023-05-20T02:57:09.536Z,21.90
2023-05-20T02:59:39.712Z,24.45
2023-05-20T03:02:09.845Z,22.88
2023-05-20T03:04:41.253Z,22.23
2023-05-20T03:07:11.995Z,21.20
2023-05-20T03:09:44.629Z,21.17
2023-05-20T03:12:14.677Z,21.17
2023-05-20T03:14:44.765Z,21.52
2023-05-20T03:17:14.836Z,19.60
2023-05-20T03:19:46.458Z,22.42
2023-05-20T03:22:16.601Z,23.67
2023-05-20T03:24:49.756Z,21.38
2023-05-20T03:27:19.831Z,21.27
2023-05-20T03:29:49.893Z,21.23
2023-05-20T03:32:20.418Z,21.42
2023-05-20T03:34:50.541Z,21.10
2023-05-20T03:37:20.628Z,20.17
2023-05-20T03:39:53.310Z,23.40
2023-05-20T03:42:23.468Z,21.20
2023-05-20T03:44:53.559Z,21.50
2023-05-20T03:47:23.815Z,20.10
2023-05-20T03:49:53.966Z,20.27
2023-05-20T03:52:24.901Z,21.77
2023-05-20T03:54:57.780Z,20.30
2023-05-20T03:57:29.665Z,20.95
2023-05-20T03:59:59.970Z,21.83
2023-05-20T04:02:30.260Z,21.75
2023-05-20T04:05:01.619Z,20.65
2023-05-20T04:07:32.799Z,22.98
2023-05-20T04:10:05.680Z,23.20
2023-05-20T04:12:38.037Z,19.20
2023-05-20T04:15:09.458Z,19.50
2023-05-20T04:17:48.789Z,20.50
2023-05-20T04:20:19.457Z,20.02
2023-05-20T04:22:49.529Z,20.27
2023-05-20T04:25:22.636Z,20.55
2023-05-20T04:27:54.334Z,19.40
2023-05-20T04:30:24.768Z,19.88
2023-05-20T04:32:55.214Z,20.90
2023-05-20T04:35:26.377Z,21.23
2023-05-20T04:37:58.961Z,20.27
2023-05-20T04:40:32.669Z,19.65
2023-05-20T04:43:04.265Z,18.65
2023-05-20T04:45:35.995Z,17.65
2023-05-20T04:48:06.260Z,18.02
2023-05-20T04:50:42.081Z,17.15
2023-05-20T04:53:12.721Z,16.17
2023-05-20T04:55:46.012Z,18.48
2023-05-20T04:58:17.527Z,19.17
2023-05-20T05:00:48.105Z,20.20
2023-05-20T05:03:18.164Z,19.80
2023-05-20T05:05:48.264Z,17.70
2023-05-20T05:08:18.407Z,19.60
2023-05-20T05:10:56.261Z,19.00
2023-05-20T05:13:26.424Z,18.20
2023-05-20T05:16:03.662Z,17.65
2023-05-20T05:18:35.297Z,19.23
2023-05-20T05:21:05.618Z,18.65
2023-05-20T05:23:37.738Z,18.80
2023-05-20T05:26:10.519Z,17.27
2023-05-20T05:28:40.940Z,18.67
2023-05-20T05:31:11.305Z,19.50
2023-05-20T05:33:41.513Z,17.50
2023-05-20T05:36:11.557Z,18.90
2023-05-20T05:38:41.693Z,20.17
2023-05-20T05:41:14.485Z,18.33
2023-05-20T05:43:44.604Z,17.33
2023-05-20T05:46:15.280Z,16.58
2023-05-20T05:48:49.122Z,18.08
2023-05-20T05:51:19.527Z,17.55
2023-05-20T05:53:51.105Z,15.88
2023-05-20T05:56:24.399Z,15.30
2023-05-20T05:58:54.432Z,18.33
2023-05-20T06:01:24.761Z,17.27
2023-05-20T06:03:54.900Z,20.00
2023-05-20T06:06:25.555Z,21.80
2023-05-20T06:08:56.049Z,18.33
2023-05-20T06:11:29.169Z,19.13
2023-05-20T06:14:00.350Z,16.83
2023-05-20T06:16:31.257Z,17.58
2023-05-20T06:19:03.843Z,16.77
2023-05-20T06:21:35.246Z,17.48
2023-05-20T06:24:05.394Z,18.27
2023-05-20T06:26:39.464Z,16.83
2023-05-20T06:29:09.547Z,17.95
2023-05-20T06:31:39.656Z,17.95
2023-05-20T06:34:09.747Z,19.10
2023-05-20T06:36:39.867Z,15.80
2023-05-20T06:39:12.651Z,18.33
2023-05-20T06:41:48.206Z,16.13
2023-05-20T06:44:30.322Z,15.85
2023-05-20T06:47:25.052Z,16.85
2023-05-20T06:49:56.185Z,17.52
2023-05-20T06:52:26.264Z,16.90
2023-05-20T06:54:56.424Z,21.15
2023-05-20T06:57:29.854Z,18.50
2023-05-20T06:59:59.911Z,19.30
2023-05-20T07:02:30.107Z,17.98
2023-05-20T07:05:00.168Z,17.08
2023-05-20T07:07:30.237Z,16.45
2023-05-20T07:10:01.144Z,17.67
2023-05-20T07:12:35.568Z,16.65
2023-05-20T07:15:07.467Z,17.13
2023-05-20T07:17:38.178Z,17.05
2023-05-20T07:20:10.302Z,18.25
2023-05-20T07:22:40.477Z,17.80
2023-05-20T07:25:14.669Z,18.92
2023-05-20T07:27:47.752Z,19.45
2023-05-20T07:30:18.397Z,21.35
2023-05-20T07:32:57.483Z,19.77
2023-05-20T07:35:27.788Z,16.20
2023-05-20T07:37:58.531Z,18.92
2023-05-20T07:40:28.662Z,19.02
2023-05-20T07:43:01.307Z,20.08
2023-05-20T07:45:31.541Z,20.88
2023-05-20T07:48:01.770Z,18.63
2023-05-20T07:50:32.202Z,20.52
2023-05-20T07:53:02.339Z,21.77
2023-05-20T07:55:37.183Z,21.20
2023-05-20T07:58:10.810Z,19.60
2023-05-20T08:00:41.862Z,17.85
2023-05-20T08:03:12.228Z,20.05
2023-05-20T08:05:56.267Z,19.98
2023-05-20T08:08:27.095Z,19.00
2023-05-20T08:11:02.107Z,18.80
2023-05-20T08:13:36.645Z,18.73
2023-05-20T08:16:08.798Z,19.30
2023-05-20T08:18:39.691Z,20.83
2023-05-20T08:21:10.931Z,22.88
2023-05-20T08:23:40.986Z,22.20
2023-05-20T08:26:11.680Z,19.45
2023-05-20T08:28:47.365Z,17.60
2023-05-20T08:31:19.542Z,18.92
2023-05-20T08:33:49.808Z,19.73
2023-05-20T08:36:19.921Z,19.67
2023-05-20T08:38:50.265Z,16.92
2023-05-20T08:41:22.532Z,16.90
2023-05-20T08:43:56.423Z,16.58
2023-05-20T08:46:26.773Z,17.23
2023-05-20T08:48:59.632Z,17.65
2023-05-20T08:51:30.849Z,17.10
2023-05-20T08:54:02.598Z,18.13
2023-05-20T08:56:33.041Z,16.35
2023-05-20T08:59:06.951Z,18.73
2023-05-20T09:01:39.763Z,13.75
2023-05-20T09:04:09.980Z,15.02
2023-05-20T09:06:47.124Z,18.23
2023-05-20T09:09:18.008Z,27.10
2023-05-20T09:11:48.089Z,21.70
2023-05-20T09:14:20.921Z,22.80
2023-05-20T09:16:52.184Z,20.50
2023-05-20T09:19:24.684Z,18.88
2023-05-20T09:21:56.954Z,25.80
2023-05-20T09:24:28.624Z,20.27
2023-05-20T09:26:58.978Z,15.93
2023-05-20T09:29:31.679Z,21.85
2023-05-20T09:32:01.749Z,21.98
2023-05-20T09:34:32.639Z,16.00
2023-05-20T09:37:02.845Z,17.60
2023-05-20T09:39:34.128Z,20.70
2023-05-20T09:42:08.986Z,17.52
2023-05-20T09:44:42.125Z,16.30
2023-05-20T09:47:12.245Z,16.55
2023-05-20T09:49:43.022Z,16.30
2023-05-20T09:52:13.364Z,22.95
2023-05-20T09:54:43.671Z,14.57
2023-05-20T09:57:13.897Z,14.52
2023-05-20T09:59:47.449Z,13.88
2023-05-20T10:02:17.656Z,15.70
2023-05-20T10:04:50.572Z,16.25
2023-05-20T10:07:55.144Z,15.98
2023-05-20T10:10:35.320Z,15.73
2023-05-20T10:13:14.466Z,14.85
2023-05-20T10:15:55.312Z,13.25
2023-05-20T10:18:33.744Z,12.23
2023-05-20T10:21:03.787Z,14.63
2023-05-20T10:23:34.547Z,20.98
2023-05-20T10:26:10.103Z,14.02
2023-05-20T10:28:41.196Z,13.45
2023-05-20T10:31:25.946Z,13.43
2023-05-20T10:33:56.924Z,15.65
2023-05-20T10:36:28.173Z,14.90
2023-05-20T10:38:59.145Z,16.45
2023-05-20T10:41:30.832Z,15.50
2023-05-20T10:44:04.859Z,16.88
2023-05-20T10:46:54.312Z,15.80
2023-05-20T10:49:37.090Z,16.08
2023-05-20T10:52:08.097Z,16.27
2023-05-20T10:54:39.488Z,16.65
2023-05-20T10:57:11.644Z,17.38
2023-05-20T10:59:41.941Z,16.83
2023-05-20T11:02:16.153Z,17.40
2023-05-20T11:04:47.018Z,17.15
2023-05-20T11:07:27.248Z,14.52
2023-05-20T11:09:57.339Z,16.80
2023-05-20T11:12:29.355Z,19.67
2023-05-20T11:14:59.462Z,16.13
2023-05-20T11:17:32.148Z,17.02
2023-05-20T11:20:02.581Z,14.98
2023-05-20T11:22:32.645Z,16.95
2023-05-20T11:25:02.722Z,15.32
2023-05-20T11:27:32.789Z,16.23
2023-05-20T11:30:02.905Z,16.90
2023-05-20T11:32:35.589Z,16.13
2023-05-20T11:35:05.676Z,16.48
2023-05-20T11:37:35.803Z,18.15
2023-05-20T11:40:10.929Z,17.35
2023-05-20T11:42:41.128Z,17.20
2023-05-20T11:45:17.190Z,17.10
2023-05-20T11:47:49.931Z,17.60
2023-05-20T11:50:21.193Z,18.52
2023-05-20T11:53:00.214Z,17.95
2023-05-20T11:55:31.041Z,16.90
2023-05-20T11:58:02.502Z,16.58
2023-05-20T12:00:49.321Z,19.25
2023-05-20T12:03:24.476Z,18.13
2023-05-20T12:05:54.758Z,19.00
2023-05-20T12:08:25.065Z,17.50
2023-05-20T12:10:55.147Z,16.50
2023-05-20T12:13:25.252Z,16.65
2023-05-20T12:15:55.483Z,16.15
2023-05-20T12:18:28.338Z,17.67
2023-05-20T12:20:58.399Z,18.58
2023-05-20T12:23:30.909Z,16.95
2023-05-20T12:26:01.231Z,16.13
2023-05-20T12:28:32.343Z,16.52
2023-05-20T12:31:02.425Z,15.95
2023-05-20T12:33:35.557Z,16.67
2023-05-20T12:36:06.419Z,19.67
2023-05-20T12:38:36.544Z,13.95
2023-05-20T12:41:06.578Z,16.27
2023-05-20T12:43:37.284Z,16.23
2023-05-20T12:46:07.779Z,13.20
2023-05-20T12:48:42.601Z,13.32
2023-05-20T12:51:12.828Z,13.63
2023-05-20T12:53:42.940Z,12.52
2023-05-20T12:56:13.006Z,12.27
2023-05-20T12:58:43.032Z,13.45
2023-05-20T13:01:13.120Z,13.00
2023-05-20T13:03:45.831Z,13.55
2023-05-20T13:06:15.892Z,12.90
2023-05-20T13:08:46.044Z,14.55
2023-05-20T13:11:16.120Z,14.50
2023-05-20T13:13:46.236Z,14.75
2023-05-20T13:16:17.026Z,13.68
2023-05-20T13:18:49.767Z,14.27
2023-05-20T13:21:20.107Z,15.82
2023-05-20T13:23:50.149Z,15.32
2023-05-20T13:26:20.162Z,13.80
2023-05-20T13:28:50.232Z,14.10
2023-05-20T13:31:20.377Z,12.63
2023-05-20T13:33:53.352Z,16.23
2023-05-20T13:36:23.436Z,16.23
2023-05-20T13:38:53.584Z,13.80
2023-05-20T13:41:23.757Z,13.70
2023-05-20T13:43:53.846Z,16.25
2023-05-20T13:46:24.064Z,16.40
2023-05-20T13:48:56.889Z,14.23
2023-05-20T13:51:27.024Z,14.73
2023-05-20T13:53:57.149Z,13.77
2023-05-20T13:56:27.328Z,14.57
2023-05-20T13:58:57.479Z,13.32
2023-05-20T14:01:27.603Z,13.85
2023-05-20T14:04:00.401Z,15.25
2023-05-20T14:06:32.167Z,17.45
2023-05-20T14:09:02.216Z,16.42
2023-05-20T14:11:32.232Z,19.45
2023-05-20T14:14:02.251Z,19.50
2023-05-20T14:16:32.500Z,18.42
2023-05-20T14:19:06.386Z,15.68
2023-05-20T14:21:38.326Z,14.15
2023-05-20T14:24:09.201Z,14.88
2023-05-20T14:26:39.454Z,18.55
2023-05-20T14:29:09.512Z,16.05
2023-05-20T14:31:39.648Z,15.30
2023-05-20T14:34:12.459Z,16.75
2023-05-20T14:36:42.551Z,19.20
2023-05-20T14:39:12.669Z,15.75
2023-05-20T14:41:42.770Z,16.58
2023-05-20T14:44:12.841Z,14.75
2023-05-20T14:46:43.220Z,14.82
2023-05-20T14:49:15.928Z,14.18
2023-05-20T14:51:46.060Z,13.57
2023-05-20T14:54:16.544Z,16.20
2023-05-20T14:56:48.643Z,14.68
2023-05-20T14:59:20.031Z,20.67
2023-05-20T15:01:50.120Z,16.10
2023-05-20T15:04:22.842Z,14.32
2023-05-20T15:06:52.976Z,14.13
2023-05-20T15:09:23.080Z,15.02
2023-05-20T15:11:53.483Z,14.55
2023-05-20T15:14:23.548Z,14.00
2023-05-20T15:16:53.668Z,14.13
2023-05-20T15:19:26.574Z,12.25
2023-05-20T15:21:56.778Z,13.63
2023-05-20T15:24:26.830Z,12.38
2023-05-20T15:26:57.189Z,11.80
2023-05-20T15:29:27.474Z,12.23
2023-05-20T15:31:57.577Z,11.40
2023-05-20T15:34:30.336Z,12.48
2023-05-20T15:37:00.425Z,12.18
2023-05-20T15:39:30.571Z,11.77
2023-05-20T15:42:02.334Z,11.93
2023-05-20T15:44:32.456Z,11.52
2023-05-20T15:47:02.647Z,11.15
2023-05-20T15:49:35.308Z,11.93
2023-05-20T15:52:05.552Z,11.65
2023-05-20T15:54:35.757Z,12.10
2023-05-20T15:57:05.819Z,12.60
2023-05-20T15:59:36.253Z,11.27
2023-05-20T16:02:06.415Z,11.57
2023-05-20T16:04:39.084Z,11.40
2023-05-20T16:07:09.220Z,12.30
2023-05-20T16:09:39.238Z,11.48
2023-05-20T16:12:09.670Z,12.05
2023-05-20T16:14:39.790Z,12.68
2023-05-20T16:17:09.869Z,11.32
2023-05-20T16:19:42.522Z,15.48
2023-05-20T16:22:13.653Z,10.45
2023-05-20T16:24:43.879Z,11.90
2023-05-20T16:27:14.591Z,18.75
2023-05-20T16:29:44.649Z,14.35
2023-05-20T16:32:14.743Z,29.88
2023-05-20T16:34:47.730Z,20.73
2023-05-20T16:37:17.838Z,16.52
2023-05-20T16:39:47.909Z,33.28
2023-05-20T16:42:18.050Z,23.73
2023-05-20T16:44:48.076Z,25.70
2023-05-20T16:47:18.217Z,16.00
2023-05-20T16:49:50.859Z,27.75
2023-05-20T16:52:21.202Z,171.57
2023-05-20T16:54:52.523Z,39.55
2023-05-20T16:57:25.784Z,81.70
2023-05-20T16:59:56.137Z,178.70
2023-05-20T17:02:29.082Z,241.75
2023-05-20T17:05:01.813Z,52.78
2023-05-20T17:07:31.869Z,99.05
2023-05-20T17:10:01.916Z,41.40
2023-05-20T17:12:32.048Z,61.40
2023-05-20T17:15:02.362Z,37.47
2023-05-20T17:17:32.433Z,26.23
2023-05-20T17:20:05.586Z,33.20
2023-05-20T17:22:35.700Z,32.72
2023-05-20T17:25:05.766Z,25.40
2023-05-20T17:27:35.931Z,149.32
2023-05-20T17:30:06.170Z,196.60
2023-05-20T17:32:36.396Z,334.83
2023-05-20T17:35:09.836Z,198.27
2023-05-20T17:37:39.922Z,92.43
2023-05-20T17:40:11.433Z,47.13
2023-05-20T17:42:41.492Z,29.00
2023-05-20T17:45:12.741Z,49.47
2023-05-20T17:47:42.954Z,21.67
2023-05-20T17:50:16.816Z,20.98
2023-05-20T17:52:46.883Z,14.88
2023-05-20T17:55:18.595Z,13.98
2023-05-20T17:57:48.781Z,14.27
2023-05-20T18:00:21.709Z,13.93
2023-05-20T18:02:52.013Z,14.50
2023-05-20T18:05:24.782Z,15.35
2023-05-20T18:07:55.117Z,15.10
2023-05-20T18:10:25.236Z,18.25
2023-05-20T18:12:55.329Z,16.15
2023-05-20T18:15:25.536Z,18.20
2023-05-20T18:17:55.744Z,15.20
2023-05-20T18:20:28.555Z,13.35
2023-05-20T18:22:58.818Z,24.50
2023-05-20T18:25:29.128Z,21.83
2023-05-20T18:27:59.204Z,19.80
2023-05-20T18:30:29.253Z,22.02
2023-05-20T18:32:59.330Z,18.85
2023-05-20T18:35:31.990Z,14.13
2023-05-20T18:38:02.270Z,13.82
2023-05-20T18:40:32.381Z,14.25
2023-05-20T18:43:02.460Z,19.20
2023-05-20T18:45:32.592Z,21.80
2023-05-20T18:48:02.903Z,19.50
2023-05-20T18:50:35.931Z,18.63
2023-05-20T18:53:06.471Z,28.15
2023-05-20T18:55:36.533Z,25.63
2023-05-20T18:58:06.815Z,34.47
2023-05-20T19:00:37.103Z,43.42
2023-05-20T19:03:07.515Z,44.97
2023-05-20T19:05:40.542Z,36.58
2023-05-20T19:08:10.861Z,39.78
2023-05-20T19:10:41.810Z,36.92
2023-05-20T19:13:11.870Z,20.88
2023-05-20T19:15:41.943Z,19.17
2023-05-20T19:18:12.473Z,20.85
2023-05-20T19:20:45.177Z,27.23
2023-05-20T19:23:15.226Z,23.10
2023-05-20T19:25:45.295Z,19.58
2023-05-20T19:28:15.391Z,27.45
2023-05-20T19:30:45.552Z,27.52
2023-05-20T19:33:15.747Z,17.92
2023-05-20T19:35:48.425Z,14.85
2023-05-20T19:38:18.597Z,14.27
2023-05-20T19:40:48.692Z,13.90
2023-05-20T19:43:18.767Z,28.45
2023-05-20T19:45:48.931Z,23.48
2023-05-20T19:48:20.692Z,16.25
2023-05-20T19:50:54.885Z,14.30
2023-05-20T19:53:24.964Z,17.10
2023-05-20T19:55:55.013Z,16.17
2023-05-20T19:58:25.243Z,15.23
2023-05-20T20:00:55.395Z,13.98
2023-05-20T20:03:25.505Z,14.18
2023-05-20T20:05:58.239Z,14.07
2023-05-20T20:08:28.363Z,16.58
2023-05-20T20:10:58.462Z,17.77
2023-05-20T20:13:28.637Z,17.58
2023-05-20T20:15:59.023Z,18.30
2023-05-20T20:18:29.792Z,17.33
2023-05-20T20:21:05.648Z,23.38
2023-05-20T20:23:36.988Z,24.75
2023-05-20T20:26:08.096Z,21.08
2023-05-20T20:28:38.251Z,19.13
2023-05-20T20:31:08.304Z,17.15
2023-05-20T20:33:38.367Z,17.70
2023-05-20T20:36:11.878Z,25.88
2023-05-20T20:38:47.253Z,17.63
2023-05-20T20:41:19.178Z,14.40
2023-05-20T20:43:49.221Z,15.38
2023-05-20T20:46:19.315Z,18.63
2023-05-20T20:48:50.411Z,22.10
2023-05-20T20:51:23.142Z,19.08
2023-05-20T20:53:53.181Z,17.42
2023-05-20T20:56:23.216Z,14.50
2023-05-20T20:58:54.271Z,15.30
2023-05-20T21:01:25.742Z,19.70
2023-05-20T21:03:56.411Z,18.42
2023-05-20T21:06:29.038Z,16.10
2023-05-20T21:09:02.363Z,16.92
2023-05-20T21:11:33.367Z,17.25
2023-05-20T21:14:03.400Z,18.92
2023-05-20T21:16:33.501Z,17.63
2023-05-20T21:19:03.611Z,16.60
2023-05-20T21:21:36.399Z,21.00
2023-05-20T21:24:06.621Z,20.52
2023-05-20T21:26:36.708Z,18.67
2023-05-20T21:29:07.614Z,20.88
2023-05-20T21:31:37.753Z,20.38
2023-05-20T21:34:07.959Z,18.92
2023-05-20T21:36:40.668Z,18.95
2023-05-20T21:39:10.725Z,17.95
2023-05-20T21:41:40.859Z,16.33
2023-05-20T21:44:10.957Z,18.33
2023-05-20T21:46:41.199Z,19.77
2023-05-20T21:49:11.460Z,20.63
2023-05-20T21:51:44.074Z,20.17
2023-05-20T21:54:14.109Z,18.33
2023-05-20T21:56:44.190Z,19.08
2023-05-20T21:59:14.904Z,22.67
2023-05-20T22:01:45.078Z,21.05
2023-05-20T22:04:15.325Z,21.13
2023-05-20T22:06:48.120Z,24.83
2023-05-20T22:09:18.224Z,24.05
2023-05-20T22:11:48.401Z,26.63
2023-05-20T22:14:18.528Z,29.88
2023-05-20T22:16:49.411Z,22.85
2023-05-20T22:19:20.490Z,19.75
2023-05-20T22:21:53.166Z,18.42
2023-05-20T22:24:23.197Z,22.50
2023-05-20T22:26:53.243Z,22.17
2023-05-20T22:29:23.327Z,18.08
2023-05-20T22:31:53.422Z,17.90
2023-05-20T22:34:23.540Z,22.40
2023-05-20T22:36:56.440Z,22.55
2023-05-20T22:39:26.472Z,22.30
2023-05-20T22:41:56.551Z,21.00
2023-05-20T22:44:26.613Z,18.52
2023-05-20T22:46:56.702Z,18.23
2023-05-20T22:49:28.078Z,17.98
2023-05-20T22:52:00.755Z,16.95
2023-05-20T22:54:30.804Z,17.25
2023-05-20T22:57:00.838Z,18.00
2023-05-20T22:59:31.309Z,21.27
2023-05-20T23:02:02.495Z,20.52
2023-05-20T23:04:32.656Z,21.40
2023-05-20T23:07:05.714Z,18.88
2023-05-20T23:09:35.794Z,18.48
2023-05-20T23:12:05.989Z,18.98
2023-05-20T23:14:36.202Z,21.17
2023-05-20T23:17:06.573Z,17.67
2023-05-20T23:19:36.700Z,16.73
2023-05-20T23:22:09.395Z,17.15
2023-05-20T23:24:39.420Z,16.92
2023-05-20T23:27:09.452Z,16.25
2023-05-20T23:29:39.987Z,15.18
2023-05-20T23:32:10.738Z,14.10
2023-05-20T23:34:41.238Z,14.55
2023-05-20T23:37:13.885Z,14.63
2023-05-20T23:39:43.971Z,15.20
2023-05-20T23:42:13.993Z,15.32
2023-05-20T23:44:44.168Z,14.35
2023-05-20T23:47:14.215Z,14.18
2023-05-20T23:49:48.605Z,15.13
2023-05-20T23:52:22.173Z,15.02
2023-05-20T23:54:52.213Z,14.82
2023-05-20T23:57:22.377Z,15.13
2023-05-20T23:59:52.939Z,15.23
